createdAt,value
2022-08-29T00:02:31.885Z,23.32
2022-08-29T00:05:04.379Z,23.33
2022-08-29T00:07:35.606Z,23.33
2022-08-29T00:10:10.308Z,23.31
2022-08-29T00:12:40.896Z,23.29
2022-08-29T00:15:14.326Z,23.26
2022-08-29T00:17:44.100Z,23.25
2022-08-29T00:20:21.599Z,23.23
2022-08-29T00:22:58.459Z,23.20
2022-08-29T00:25:34.027Z,23.19
2022-08-29T00:28:03.863Z,23.17
2022-08-29T00:30:36.872Z,23.17
2022-08-29T00:33:09.134Z,23.18
2022-08-29T00:35:42.746Z,23.17
2022-08-29T00:38:15.252Z,23.16
2022-08-29T00:40:54.048Z,23.14
2022-08-29T00:43:28.767Z,23.11
2022-08-29T00:46:15.098Z,23.12
2022-08-29T00:48:47.124Z,23.12
2022-08-29T00:51:25.977Z,23.12
2022-08-29T00:54:04.142Z,23.12
2022-08-29T00:56:46.361Z,23.11
2022-08-29T00:59:18.211Z,23.10
2022-08-29T01:01:50.540Z,23.08
2022-08-29T01:04:26.189Z,23.07
2022-08-29T01:07:00.688Z,23.08
2022-08-29T01:09:36.227Z,23.09
2022-08-29T01:12:23.167Z,23.10
2022-08-29T01:14:55.911Z,23.07
2022-08-29T01:17:28.469Z,23.04
2022-08-29T01:20:18.400Z,23.03
2022-08-29T01:23:03.656Z,23.00
2022-08-29T01:25:39.149Z,22.95
2022-08-29T01:28:13.444Z,22.92
2022-08-29T01:31:03.322Z,22.90
2022-08-29T01:33:51.787Z,22.84
2022-08-29T01:36:23.063Z,22.76
2022-08-29T01:38:56.019Z,22.70
2022-08-29T01:41:27.546Z,22.66
2022-08-29T01:43:59.805Z,22.62
2022-08-29T01:46:32.786Z,22.59
2022-08-29T01:49:16.931Z,22.57
2022-08-29T01:51:45.870Z,22.55
2022-08-29T01:54:15.453Z,22.55
2022-08-29T01:56:54.859Z,22.55
2022-08-29T01:59:32.968Z,22.54
2022-08-29T02:02:08.256Z,22.56
2022-08-29T02:04:40.790Z,22.58
2022-08-29T02:07:12.858Z,22.60
2022-08-29T02:09:45.453Z,22.63
2022-08-29T02:12:22.594Z,22.67
2022-08-29T02:14:56.270Z,22.70
2022-08-29T02:17:27.516Z,22.72
2022-08-29T02:20:01.224Z,22.74
2022-08-29T02:22:41.685Z,22.73
2022-08-29T02:25:32.183Z,22.74
2022-08-29T02:28:04.723Z,22.75
2022-08-29T02:30:35.481Z,22.75
2022-08-29T02:33:11.341Z,22.75
2022-08-29T02:35:53.510Z,22.74
2022-08-29T02:38:29.037Z,22.74
2022-08-29T02:41:01.308Z,22.75
2022-08-29T02:43:38.783Z,22.74
2022-08-29T02:46:15.535Z,22.71
2022-08-29T02:48:49.266Z,22.69
2022-08-29T02:51:34.254Z,22.70
2022-08-29T02:54:34.773Z,22.72
2022-08-29T02:57:05.447Z,22.74
2022-08-29T03:00:01.318Z,22.76
2022-08-29T03:02:34.835Z,22.77
2022-08-29T03:05:16.156Z,22.78
2022-08-29T03:07:49.059Z,22.78
2022-08-29T03:10:25.861Z,22.79
2022-08-29T03:13:20.750Z,22.80
2022-08-29T03:15:57.219Z,22.82
2022-08-29T03:18:31.723Z,22.83
2022-08-29T03:21:00.171Z,22.84
2022-08-29T03:23:37.261Z,22.85
2022-08-29T03:26:07.195Z,22.86
2022-08-29T03:28:44.098Z,22.85
2022-08-29T03:31:19.405Z,22.85
2022-08-29T03:34:07.079Z,22.85
2022-08-29T03:36:36.121Z,22.85
2022-08-29T03:39:16.998Z,22.87
2022-08-29T03:41:49.155Z,22.87
2022-08-29T03:44:30.122Z,22.87
2022-08-29T03:46:59.658Z,22.88
2022-08-29T03:49:30.231Z,22.88
2022-08-29T03:52:12.311Z,22.88
2022-08-29T03:54:49.326Z,22.88
2022-08-29T03:57:36.588Z,22.88
2022-08-29T04:00:19.648Z,22.88
2022-08-29T04:03:04.072Z,22.89
2022-08-29T04:05:47.317Z,22.89
2022-08-29T04:08:24.306Z,22.90
2022-08-29T04:11:02.018Z,22.90
2022-08-29T04:13:37.492Z,22.88
2022-08-29T04:16:35.819Z,22.88
2022-08-29T04:19:13.028Z,22.87
2022-08-29T04:22:05.984Z,22.89
2022-08-29T04:24:36.449Z,22.91
2022-08-29T04:27:18.240Z,22.92
2022-08-29T04:30:00.167Z,22.92
2022-08-29T04:32:43.537Z,22.94
2022-08-29T04:35:23.705Z,22.93
2022-08-29T04:38:09.513Z,22.93
2022-08-29T04:40:50.575Z,22.92
2022-08-29T04:43:30.874Z,22.88
2022-08-29T04:46:24.559Z,22.86
2022-08-29T04:49:15.583Z,22.80
2022-08-29T04:51:49.419Z,22.76
2022-08-29T04:54:23.484Z,22.73
2022-08-29T04:57:01.402Z,22.70
2022-08-29T04:59:58.880Z,22.69
2022-08-29T05:02:47.356Z,22.68
2022-08-29T05:05:24.835Z,22.65
2022-08-29T05:08:10.700Z,22.61
2022-08-29T05:11:06.251Z,22.56
2022-08-29T05:13:50.133Z,22.53
2022-08-29T05:16:21.024Z,22.48
2022-08-29T05:18:53.737Z,22.46
2022-08-29T05:21:45.915Z,22.42
2022-08-29T05:24:22.257Z,22.40
2022-08-29T05:27:06.521Z,22.38
2022-08-29T05:29:56.201Z,22.40
2022-08-29T05:32:39.112Z,22.41
2022-08-29T05:35:39.365Z,22.41
2022-08-29T05:38:39.493Z,22.43
2022-08-29T05:41:17.336Z,22.43
2022-08-29T05:44:13.137Z,22.40
2022-08-29T05:47:08.403Z,22.37
2022-08-29T05:49:58.158Z,22.35
2022-08-29T05:52:56.957Z,22.33
2022-08-29T05:55:58.073Z,22.31
2022-08-29T05:58:58.860Z,22.29
2022-08-29T06:05:03.213Z,22.30
2022-08-29T06:07:52.347Z,22.33
2022-08-29T06:10:55.987Z,22.36
2022-08-29T06:13:36.626Z,22.36
2022-08-29T06:16:42.466Z,22.36
2022-08-29T06:20:08.777Z,22.35
2022-08-29T06:23:05.336Z,22.34
2022-08-29T06:25:54.797Z,22.37
2022-08-29T06:28:42.499Z,22.43
2022-08-29T06:31:35.777Z,22.46
2022-08-29T06:34:29.651Z,22.47
2022-08-29T06:37:39.189Z,22.51
2022-08-29T06:40:40.252Z,22.55
2022-08-29T06:44:05.622Z,22.61
2022-08-29T06:46:59.589Z,22.69
2022-08-29T06:49:50.783Z,22.78
2022-08-29T06:53:26.070Z,22.86
2022-08-29T07:00:29.485Z,22.97
2022-08-29T07:03:58.433Z,22.97
2022-08-29T07:14:06.199Z,23.01
2022-08-29T07:17:02.935Z,22.97
2022-08-29T07:29:35.272Z,22.95
2022-08-29T07:32:25.923Z,22.96
2022-08-29T07:35:30.865Z,22.95
2022-08-29T07:38:11.839Z,22.96
2022-08-29T07:41:09.626Z,22.96
2022-08-29T07:43:54.038Z,22.94
2022-08-29T07:46:32.104Z,22.92
2022-08-29T07:49:06.990Z,22.91
2022-08-29T07:51:38.680Z,22.89
2022-08-29T07:54:18.339Z,22.87
2022-08-29T07:57:00.178Z,22.91
2022-08-29T07:59:30.459Z,23.12
2022-08-29T08:02:01.426Z,23.42
2022-08-29T08:04:30.074Z,23.82
2022-08-29T08:06:58.706Z,24.25
2022-08-29T08:09:29.549Z,24.66
2022-08-29T08:12:03.891Z,24.93
2022-08-29T08:14:36.955Z,25.12
2022-08-29T08:17:05.477Z,25.21
2022-08-29T08:19:33.953Z,25.23
2022-08-29T08:22:03.705Z,25.21
2022-08-29T08:24:35.228Z,25.14
2022-08-29T08:27:04.718Z,25.06
2022-08-29T08:29:33.371Z,24.96
2022-08-29T08:32:02.122Z,24.84
2022-08-29T08:34:30.751Z,24.72
2022-08-29T08:36:59.090Z,24.57
2022-08-29T08:39:27.575Z,24.45
2022-08-29T08:42:03.950Z,24.39
2022-08-29T08:45:03.155Z,24.41
2022-08-29T08:47:37.495Z,24.46
2022-08-29T08:50:15.153Z,24.46
2022-08-29T08:52:50.168Z,24.44
2022-08-29T08:55:28.179Z,24.40
2022-08-29T08:58:05.657Z,24.34
2022-08-29T09:00:42.489Z,24.28
2022-08-29T09:03:22.520Z,24.27
2022-08-29T09:06:06.901Z,24.34
2022-08-29T09:08:47.236Z,24.54
2022-08-29T09:11:26.545Z,24.82
2022-08-29T09:14:07.910Z,25.25
2022-08-29T09:16:42.534Z,25.60
2022-08-29T09:19:17.298Z,25.90
2022-08-29T09:21:52.276Z,26.12
2022-08-29T09:24:26.984Z,26.23
2022-08-29T09:26:57.589Z,26.39
2022-08-29T09:29:28.992Z,26.54
2022-08-29T09:32:09.796Z,26.61
2022-08-29T09:35:07.572Z,26.62
2022-08-29T09:37:34.410Z,26.55
2022-08-29T09:40:10.215Z,26.53
2022-08-29T09:42:42.747Z,26.70
2022-08-29T09:45:19.299Z,26.91
2022-08-29T09:47:48.351Z,27.01
2022-08-29T09:50:25.880Z,27.03
2022-08-29T09:52:57.384Z,26.99
2022-08-29T09:55:30.610Z,26.92
2022-08-29T09:58:06.525Z,26.84
2022-08-29T10:00:39.809Z,26.73
2022-08-29T10:03:19.744Z,26.61
2022-08-29T10:06:06.196Z,26.61
2022-08-29T10:08:38.796Z,26.77
2022-08-29T10:11:22.228Z,26.97
2022-08-29T10:14:12.576Z,27.21
2022-08-29T10:16:51.779Z,27.49
2022-08-29T10:19:26.587Z,27.68
2022-08-29T10:22:06.307Z,27.87
2022-08-29T10:24:49.039Z,28.04
2022-08-29T10:27:29.763Z,28.20
2022-08-29T10:30:08.048Z,28.39
2022-08-29T10:33:00.080Z,28.57
2022-08-29T10:35:33.076Z,28.65
2022-08-29T10:38:09.391Z,28.62
2022-08-29T10:40:43.421Z,28.62
2022-08-29T10:43:27.717Z,28.68
2022-08-29T10:46:12.016Z,28.83
2022-08-29T10:48:45.982Z,28.92
2022-08-29T10:51:26.770Z,29.00
2022-08-29T10:54:03.192Z,29.12
2022-08-29T10:56:41.234Z,29.09
2022-08-29T10:59:19.643Z,28.96
2022-08-29T11:01:53.623Z,28.95
2022-08-29T11:04:28.802Z,29.03
2022-08-29T11:07:02.511Z,29.01
2022-08-29T11:09:36.622Z,28.94
2022-08-29T11:12:12.524Z,28.84
2022-08-29T11:14:56.814Z,28.68
2022-08-29T11:17:32.495Z,28.58
2022-08-29T11:20:09.050Z,28.54
2022-08-29T11:22:43.876Z,28.47
2022-08-29T11:25:15.727Z,28.44
2022-08-29T11:27:56.809Z,28.43
2022-08-29T11:30:41.790Z,28.40
2022-08-29T11:33:30.799Z,28.35
2022-08-29T11:36:16.937Z,28.24
2022-08-29T11:38:49.669Z,28.17
2022-08-29T11:41:28.271Z,28.15
2022-08-29T11:44:07.486Z,28.14
2022-08-29T11:46:42.550Z,28.18
2022-08-29T11:49:36.712Z,28.16
2022-08-29T11:52:27.892Z,28.13
2022-08-29T11:55:30.583Z,28.14
2022-08-29T11:58:11.287Z,28.16
2022-08-29T12:00:50.627Z,28.15
2022-08-29T12:03:45.639Z,28.16
2022-08-29T12:06:23.525Z,28.15
2022-08-29T12:09:04.508Z,28.13
2022-08-29T12:12:13.219Z,28.09
2022-08-29T12:14:47.696Z,28.08
2022-08-29T12:18:01.541Z,28.02
2022-08-29T12:20:45.017Z,27.97
2022-08-29T12:23:25.165Z,27.91
2022-08-29T12:26:15.904Z,27.83
2022-08-29T12:28:57.112Z,27.75
2022-08-29T12:31:56.902Z,27.68
2022-08-29T12:34:49.896Z,27.57
2022-08-29T12:37:45.180Z,27.52
2022-08-29T12:40:30.824Z,27.43
2022-08-29T12:43:22.896Z,27.35
2022-08-29T12:45:55.543Z,27.28
2022-08-29T12:48:30.234Z,27.22
2022-08-29T12:51:00.401Z,27.16
2022-08-29T12:53:43.307Z,27.11
2022-08-29T12:56:53.962Z,27.09
2022-08-29T12:59:23.721Z,27.05
2022-08-29T13:01:59.920Z,27.02
2022-08-29T13:04:36.083Z,26.97
2022-08-29T13:07:08.860Z,26.94
2022-08-29T13:09:44.757Z,26.90
2022-08-29T13:12:17.303Z,26.89
2022-08-29T13:15:04.424Z,26.87
2022-08-29T13:17:35.373Z,26.82
2022-08-29T13:20:46.020Z,26.79
2022-08-29T13:23:32.924Z,26.74
2022-08-29T13:26:05.954Z,26.69
2022-08-29T13:28:42.867Z,26.66
2022-08-29T13:31:30.201Z,26.62
2022-08-29T13:34:20.963Z,26.55
2022-08-29T13:37:01.863Z,26.47
2022-08-29T13:39:38.095Z,26.42
2022-08-29T13:42:43.743Z,26.38
2022-08-29T13:45:23.563Z,26.36
2022-08-29T13:47:57.678Z,26.33
2022-08-29T13:50:28.551Z,26.29
2022-08-29T13:52:58.174Z,26.26
2022-08-29T13:55:28.667Z,26.22
2022-08-29T13:57:57.727Z,26.18
2022-08-29T14:00:32.499Z,26.10
2022-08-29T14:03:08.652Z,26.05
2022-08-29T14:05:37.985Z,25.99
2022-08-29T14:08:10.484Z,25.94
2022-08-29T14:10:40.048Z,25.90
2022-08-29T14:13:08.735Z,25.85
2022-08-29T14:15:38.723Z,25.82
2022-08-29T14:18:07.720Z,25.80
2022-08-29T14:20:37.029Z,25.78
2022-08-29T14:23:05.936Z,25.75
2022-08-29T14:25:34.998Z,25.73
2022-08-29T14:28:07.691Z,25.70
2022-08-29T14:30:37.829Z,25.68
2022-08-29T14:33:09.502Z,25.64
2022-08-29T14:35:42.503Z,25.61
2022-08-29T14:38:12.481Z,25.57
2022-08-29T14:40:41.387Z,25.55
2022-08-29T14:43:13.708Z,25.53
2022-08-29T14:45:42.304Z,25.51
2022-08-29T14:48:12.789Z,25.50
2022-08-29T14:50:41.529Z,25.49
2022-08-29T14:53:14.848Z,25.48
2022-08-29T14:55:47.035Z,25.47
2022-08-29T14:58:16.543Z,25.45
2022-08-29T15:00:45.397Z,25.46
2022-08-29T15:03:19.267Z,25.47
2022-08-29T15:05:50.585Z,25.44
2022-08-29T15:08:19.591Z,25.42
2022-08-29T15:10:48.336Z,25.41
2022-08-29T15:13:18.016Z,25.41
2022-08-29T15:15:46.609Z,25.39
2022-08-29T15:18:48.000Z,25.38
2022-08-29T15:21:06.939Z,25.40
2022-08-29T15:23:35.719Z,25.40
2022-08-29T15:26:04.352Z,25.40
2022-08-29T15:28:33.030Z,25.41
2022-08-29T15:31:02.915Z,25.40
2022-08-29T15:33:31.813Z,25.39
2022-08-29T15:36:00.637Z,25.39
2022-08-29T15:38:29.167Z,25.38
2022-08-29T15:40:58.149Z,25.38
2022-08-29T15:43:27.263Z,25.36
2022-08-29T15:45:59.232Z,25.34
2022-08-29T15:48:28.379Z,25.32
2022-08-29T15:50:56.902Z,25.32
2022-08-29T15:53:25.414Z,25.30
2022-08-29T15:55:53.947Z,25.29
2022-08-29T15:58:22.442Z,25.28
2022-08-29T16:00:50.845Z,25.25
2022-08-29T16:03:19.286Z,25.22
2022-08-29T16:05:47.671Z,25.19
2022-08-29T16:08:16.689Z,25.16
2022-08-29T16:10:46.417Z,25.13
2022-08-29T16:13:14.887Z,25.10
2022-08-29T16:15:43.381Z,25.08
2022-08-29T16:18:15.175Z,25.06
2022-08-29T16:20:43.868Z,25.03
2022-08-29T16:23:12.390Z,25.01
2022-08-29T16:25:44.337Z,24.98
2022-08-29T16:28:13.379Z,24.93
2022-08-29T16:31:58.039Z,24.91
2022-08-29T16:34:26.864Z,24.87
2022-08-29T16:36:56.947Z,24.85
2022-08-29T16:39:27.100Z,24.82
2022-08-29T16:41:56.286Z,24.78
2022-08-29T16:44:24.882Z,24.75
2022-08-29T16:46:53.814Z,24.72
2022-08-29T16:49:22.437Z,24.67
2022-08-29T16:51:52.033Z,24.63
2022-08-29T16:54:21.468Z,24.59
2022-08-29T16:56:50.215Z,24.54
2022-08-29T16:59:18.721Z,24.48
2022-08-29T17:01:50.479Z,24.44
2022-08-29T17:04:23.872Z,24.40
2022-08-29T17:06:53.263Z,24.36
2022-08-29T17:09:25.596Z,24.31
2022-08-29T17:11:56.367Z,24.26
2022-08-29T17:14:25.962Z,24.21
2022-08-29T17:16:55.944Z,24.17
2022-08-29T17:19:25.222Z,24.13
2022-08-29T17:21:54.445Z,24.09
2022-08-29T17:24:26.187Z,24.04
2022-08-29T17:26:54.738Z,23.99
2022-08-29T17:29:23.158Z,23.94
2022-08-29T17:31:51.678Z,23.90
2022-08-29T17:34:20.165Z,23.84
2022-08-29T17:36:49.051Z,23.79
2022-08-29T17:39:17.482Z,23.74
2022-08-29T17:41:51.662Z,23.70
2022-08-29T17:44:20.281Z,23.65
2022-08-29T17:46:48.917Z,23.61
2022-08-29T17:49:17.412Z,23.57
2022-08-29T17:51:53.426Z,23.53
2022-08-29T17:54:25.992Z,23.48
2022-08-29T17:56:57.322Z,23.42
2022-08-29T17:59:29.311Z,23.36
2022-08-29T18:01:59.216Z,23.30
2022-08-29T18:04:28.390Z,23.25
2022-08-29T18:06:57.915Z,23.21
2022-08-29T18:09:28.831Z,23.17
2022-08-29T18:11:58.663Z,23.14
2022-08-29T18:14:30.327Z,23.10
2022-08-29T18:16:58.817Z,23.05
2022-08-29T18:19:28.144Z,23.02
2022-08-29T18:21:57.761Z,22.98
2022-08-29T18:24:26.715Z,22.95
2022-08-29T18:26:55.454Z,22.92
2022-08-29T18:29:31.431Z,22.88
2022-08-29T18:32:00.268Z,22.85
2022-08-29T18:34:28.642Z,22.82
2022-08-29T18:36:57.113Z,22.79
2022-08-29T18:39:27.543Z,22.77
2022-08-29T18:41:57.057Z,22.74
2022-08-29T18:44:25.551Z,22.71
2022-08-29T18:46:54.023Z,22.68
2022-08-29T18:49:43.694Z,22.66
2022-08-29T18:52:13.301Z,22.63
2022-08-29T18:54:45.033Z,22.61
2022-08-29T18:57:13.815Z,22.59
2022-08-29T18:59:42.501Z,22.56
2022-08-29T19:02:12.476Z,22.54
2022-08-29T19:04:41.482Z,22.52
2022-08-29T19:07:11.356Z,22.52
2022-08-29T19:09:40.231Z,22.49
2022-08-29T19:12:09.374Z,22.47
2022-08-29T19:14:45.888Z,22.45
2022-08-29T19:17:14.955Z,22.45
2022-08-29T19:20:01.770Z,22.44
2022-08-29T19:22:30.166Z,22.42
2022-08-29T19:24:58.608Z,22.40
2022-08-29T19:27:42.692Z,22.37
2022-08-29T19:30:15.467Z,22.33
2022-08-29T19:32:45.863Z,22.30
2022-08-29T19:35:15.010Z,22.28
2022-08-29T19:37:44.579Z,22.26
2022-08-29T19:40:16.775Z,22.23
2022-08-29T19:42:45.752Z,22.21
2022-08-29T19:45:18.633Z,22.18
2022-08-29T19:47:48.849Z,22.15
2022-08-29T19:50:19.169Z,22.12
2022-08-29T19:52:49.355Z,22.09
2022-08-29T19:55:20.550Z,22.05
2022-08-29T19:57:53.947Z,22.01
2022-08-29T20:00:24.813Z,21.99
2022-08-29T20:02:55.171Z,21.97
2022-08-29T20:05:25.453Z,21.95
2022-08-29T20:07:55.338Z,21.92
2022-08-29T20:10:27.199Z,21.89
2022-08-29T20:12:57.736Z,21.87
2022-08-29T20:15:30.666Z,21.85
2022-08-29T20:18:00.820Z,21.82
2022-08-29T20:20:37.479Z,21.79
2022-08-29T20:23:07.471Z,21.75
2022-08-29T20:25:36.503Z,21.71
2022-08-29T20:28:06.334Z,21.70
2022-08-29T20:30:39.023Z,21.67
2022-08-29T20:33:07.844Z,21.66
2022-08-29T20:35:59.692Z,21.65
2022-08-29T20:38:32.676Z,21.64
2022-08-29T20:41:02.607Z,21.61
2022-08-29T20:43:31.079Z,21.59
2022-08-29T20:46:05.338Z,21.55
2022-08-29T20:48:34.065Z,21.53
2022-08-29T20:51:05.426Z,21.51
2022-08-29T20:53:35.120Z,21.49
2022-08-29T20:56:05.124Z,21.46
2022-08-29T20:58:34.026Z,21.43
2022-08-29T21:01:03.075Z,21.41
2022-08-29T21:03:50.294Z,21.39
2022-08-29T21:06:23.291Z,21.35
2022-08-29T21:08:52.106Z,21.33
2022-08-29T21:11:21.247Z,21.32
2022-08-29T21:14:39.306Z,21.30
2022-08-29T21:22:15.965Z,21.21
2022-08-29T21:25:33.353Z,21.18
2022-08-29T21:28:28.116Z,21.13
2022-08-29T21:31:21.145Z,21.10
2022-08-29T21:43:37.271Z,20.89
2022-08-29T21:46:14.803Z,20.82
2022-08-29T21:48:43.398Z,20.75
2022-08-29T21:51:13.627Z,20.71
2022-08-29T21:53:42.203Z,20.68
2022-08-29T21:56:10.647Z,20.65
2022-08-29T21:58:39.855Z,20.62
2022-08-29T22:01:10.683Z,20.56
2022-08-29T22:03:39.216Z,20.53
2022-08-29T22:06:08.955Z,20.49
2022-08-29T22:08:39.742Z,20.48
2022-08-29T22:11:16.753Z,20.47
2022-08-29T22:13:46.248Z,20.46
2022-08-29T22:16:30.192Z,20.44
2022-08-29T22:19:02.511Z,20.41
2022-08-29T22:21:33.237Z,20.42
2022-08-29T22:24:03.187Z,20.42
2022-08-29T22:26:32.177Z,20.41
2022-08-29T22:29:02.009Z,20.41
2022-08-29T22:31:31.354Z,20.39
2022-08-29T22:34:00.526Z,20.37
2022-08-29T22:36:29.258Z,20.35
2022-08-29T22:38:57.962Z,20.34
2022-08-29T22:41:26.611Z,20.34
2022-08-29T22:44:31.631Z,20.34
2022-08-29T22:46:44.798Z,20.33
2022-08-29T22:49:13.551Z,20.32
2022-08-29T22:51:42.081Z,20.30
2022-08-29T22:54:28.911Z,20.28
2022-08-29T22:56:57.743Z,20.25
2022-08-29T22:59:26.222Z,20.21
2022-08-29T23:01:54.804Z,20.16
2022-08-29T23:04:36.206Z,20.13
2022-08-29T23:07:06.241Z,20.11
2022-08-29T23:09:35.999Z,20.09
2022-08-29T23:12:08.476Z,20.06
2022-08-29T23:14:39.116Z,20.04
2022-08-29T23:17:09.195Z,20.01
2022-08-29T23:19:41.051Z,19.99
2022-08-29T23:22:10.809Z,19.97
2022-08-29T23:24:41.562Z,19.97
2022-08-29T23:27:30.518Z,19.97
2022-08-29T23:29:59.975Z,19.98
2022-08-29T23:32:29.123Z,19.97
2022-08-29T23:34:57.597Z,19.96
2022-08-29T23:37:26.131Z,19.93
2022-08-29T23:39:54.677Z,19.90
2022-08-29T23:42:23.527Z,19.86
2022-08-29T23:44:52.037Z,19.82
2022-08-29T23:47:20.569Z,19.79
2022-08-29T23:49:49.122Z,19.75
2022-08-29T23:52:17.842Z,19.73
2022-08-29T23:54:46.656Z,19.71
2022-08-29T23:57:15.426Z,19.71
